createdAt,value
2023-02-08T00:01:28.628Z,71.14
2023-02-08T00:03:55.371Z,71.55
2023-02-08T00:06:22.084Z,71.86
2023-02-08T00:08:48.784Z,72.34
2023-02-08T00:11:15.444Z,72.19
2023-02-08T00:13:43.017Z,71.56
2023-02-08T00:16:09.933Z,72.62
2023-02-08T00:18:38.653Z,72.35
2023-02-08T00:21:09.255Z,71.43
2023-02-08T00:23:35.942Z,70.57
2023-02-08T00:26:02.658Z,69.59
2023-02-08T00:28:30.357Z,68.58
2023-02-08T00:30:57.197Z,68.15
2023-02-08T00:33:23.880Z,67.90
2023-02-08T00:35:50.529Z,68.66
2023-02-08T00:38:18.213Z,67.34
2023-02-08T00:40:44.876Z,65.22
2023-02-08T00:43:11.784Z,63.38
2023-02-08T00:45:38.560Z,64.00
2023-02-08T00:48:06.201Z,64.22
2023-02-08T00:50:32.871Z,65.38
2023-02-08T00:52:59.947Z,64.16
2023-02-08T00:55:26.638Z,63.99
2023-02-08T00:57:54.313Z,65.35
2023-02-08T01:00:20.943Z,66.78
2023-02-08T01:02:47.635Z,65.96
2023-02-08T01:05:14.342Z,66.36
2023-02-08T01:07:56.072Z,67.34
2023-02-08T01:10:22.793Z,66.45
2023-02-08T01:12:49.458Z,66.23
2023-02-08T01:15:16.100Z,67.27
2023-02-08T01:17:53.105Z,67.38
2023-02-08T01:20:19.843Z,67.44
2023-02-08T01:22:46.516Z,67.90
2023-02-08T01:25:13.353Z,68.00
2023-02-08T01:27:41.006Z,66.60
2023-02-08T01:30:07.941Z,66.43
2023-02-08T01:32:34.628Z,65.27
2023-02-08T01:35:01.296Z,66.47
2023-02-08T01:37:30.977Z,66.08
2023-02-08T01:39:57.674Z,66.15
2023-02-08T01:42:24.328Z,67.23
2023-02-08T01:45:30.088Z,68.33
2023-02-08T01:48:04.804Z,68.89
2023-02-08T01:50:33.053Z,69.71
2023-02-08T01:52:59.760Z,70.46
2023-02-08T01:55:27.748Z,70.25
2023-02-08T01:57:54.991Z,70.81
2023-02-08T02:00:22.556Z,69.84
2023-02-08T02:02:49.778Z,70.45
2023-02-08T02:05:19.725Z,68.99
2023-02-08T02:07:47.480Z,68.61
2023-02-08T02:10:15.726Z,66.57
2023-02-08T02:12:42.551Z,67.33
2023-02-08T02:15:09.826Z,68.11
2023-02-08T02:17:51.834Z,67.78
2023-02-08T02:20:29.326Z,68.60
2023-02-08T02:23:34.718Z,68.67
2023-02-08T02:26:27.321Z,71.67
2023-02-08T02:28:54.997Z,70.45
2023-02-08T02:31:27.584Z,71.41
2023-02-08T02:34:13.079Z,70.90
2023-02-08T02:36:45.725Z,71.51
2023-02-08T02:39:15.830Z,72.35
2023-02-08T02:42:06.437Z,73.37
2023-02-08T02:44:33.068Z,72.38
2023-02-08T02:47:08.172Z,73.71
2023-02-08T02:49:42.747Z,72.12
2023-02-08T02:52:13.056Z,71.92
2023-02-08T02:54:58.270Z,71.51
2023-02-08T02:57:28.345Z,69.21
2023-02-08T02:59:55.038Z,69.70
2023-02-08T03:02:21.773Z,69.74
2023-02-08T03:04:49.473Z,69.43
2023-02-08T03:07:22.880Z,70.94
2023-02-08T03:09:49.528Z,71.14
2023-02-08T03:12:19.372Z,70.68
2023-02-08T03:14:52.900Z,71.69
2023-02-08T03:17:25.239Z,72.56
2023-02-08T03:20:01.137Z,73.48
2023-02-08T03:22:32.704Z,73.80
2023-02-08T03:25:03.458Z,72.72
2023-02-08T03:27:40.908Z,71.05
2023-02-08T03:30:10.615Z,71.05
2023-02-08T03:32:47.503Z,70.59
2023-02-08T03:35:15.904Z,71.20
2023-02-08T03:37:49.240Z,71.23
2023-02-08T03:40:23.378Z,70.55
2023-02-08T03:42:50.349Z,69.55
2023-02-08T03:45:18.709Z,71.54
2023-02-08T03:47:51.716Z,71.19
2023-02-08T03:50:18.514Z,71.76
2023-02-08T03:52:46.110Z,69.99
2023-02-08T03:55:14.290Z,70.64
2023-02-08T03:57:48.270Z,70.30
2023-02-08T04:00:15.348Z,69.06
2023-02-08T04:02:50.195Z,69.16
2023-02-08T04:05:16.917Z,70.19
2023-02-08T04:07:46.762Z,70.74
2023-02-08T04:10:13.410Z,71.32
2023-02-08T04:12:40.026Z,72.10
2023-02-08T04:15:06.926Z,72.06
2023-02-08T04:17:34.576Z,72.23
2023-02-08T04:20:01.237Z,71.37
2023-02-08T04:22:27.926Z,72.92
2023-02-08T04:24:54.578Z,73.81
2023-02-08T04:27:21.236Z,75.54
2023-02-08T04:29:47.948Z,80.29
2023-02-08T04:32:14.656Z,77.50
2023-02-08T04:34:41.325Z,75.54
2023-02-08T04:37:15.146Z,74.92
2023-02-08T04:39:41.799Z,74.57
2023-02-08T04:42:08.645Z,74.15
2023-02-08T04:44:35.335Z,73.68
2023-02-08T04:47:08.065Z,71.86
2023-02-08T04:49:34.781Z,71.47
2023-02-08T04:52:01.410Z,71.79
2023-02-08T04:54:28.266Z,71.40
2023-02-08T04:56:54.949Z,73.02
2023-02-08T04:59:21.645Z,71.15
2023-02-08T05:01:48.516Z,70.43
2023-02-08T05:04:15.192Z,72.58
2023-02-08T05:06:41.884Z,72.23
2023-02-08T05:09:17.718Z,72.45
2023-02-08T05:11:44.374Z,71.31
2023-02-08T05:14:11.099Z,70.00
2023-02-08T05:16:37.773Z,70.09
2023-02-08T05:19:10.716Z,71.16
2023-02-08T05:21:37.367Z,71.97
2023-02-08T05:24:04.025Z,72.83
2023-02-08T05:26:30.709Z,74.00
2023-02-08T05:28:57.396Z,73.51
2023-02-08T05:31:24.722Z,73.57
2023-02-08T05:33:51.874Z,72.36
2023-02-08T05:36:19.045Z,71.56
2023-02-08T05:38:45.908Z,71.92
2023-02-08T05:41:12.620Z,71.97
2023-02-08T05:43:39.319Z,70.70
2023-02-08T05:46:05.997Z,68.60
2023-02-08T05:48:32.749Z,69.92
2023-02-08T05:50:59.715Z,70.44
2023-02-08T05:53:26.361Z,71.20
2023-02-08T05:55:53.278Z,71.23
2023-02-08T05:58:21.935Z,70.93
2023-02-08T06:00:48.590Z,69.56
2023-02-08T06:03:15.319Z,66.92
2023-02-08T06:05:42.090Z,70.04
2023-02-08T06:08:13.910Z,70.62
2023-02-08T06:10:40.889Z,72.14
2023-02-08T06:13:07.623Z,71.52
2023-02-08T06:15:34.278Z,71.71
2023-02-08T06:18:09.319Z,71.81
2023-02-08T06:20:36.075Z,70.02
2023-02-08T06:23:02.920Z,70.25
2023-02-08T06:25:29.572Z,69.71
2023-02-08T06:27:57.514Z,70.83
2023-02-08T06:30:24.365Z,70.67
2023-02-08T06:32:51.109Z,70.47
2023-02-08T06:35:17.855Z,70.89
2023-02-08T06:37:48.654Z,70.08
2023-02-08T06:40:15.355Z,70.46
2023-02-08T06:42:43.199Z,70.88
2023-02-08T06:45:12.049Z,70.69
2023-02-08T06:47:41.187Z,70.64
2023-02-08T06:50:08.089Z,69.93
2023-02-08T06:52:34.872Z,70.75
2023-02-08T06:55:01.560Z,70.24
2023-02-08T06:57:29.222Z,71.11
2023-02-08T06:59:55.877Z,70.10
2023-02-08T07:02:22.733Z,68.93
2023-02-08T07:04:49.484Z,71.33
2023-02-08T07:10:26.596Z,72.02
2023-02-08T07:12:53.318Z,71.21
2023-02-08T07:15:19.957Z,68.44
2023-02-08T07:17:46.725Z,67.11
2023-02-08T07:20:13.397Z,66.02
2023-02-08T07:22:40.252Z,65.53
2023-02-08T07:25:07.497Z,66.30
2023-02-08T07:27:34.182Z,67.42
2023-02-08T07:30:00.837Z,68.11
2023-02-08T07:32:27.538Z,67.29
2023-02-08T07:34:56.830Z,69.04
2023-02-08T07:37:23.756Z,71.01
2023-02-08T07:39:50.392Z,73.94
2023-02-08T07:42:17.066Z,74.79
2023-02-08T07:44:43.751Z,77.47
2023-02-08T07:47:10.970Z,80.46
2023-02-08T07:49:37.684Z,81.44
2023-02-08T07:52:04.636Z,80.86
2023-02-08T07:54:31.342Z,80.67
2023-02-08T07:56:58.316Z,79.28
2023-02-08T07:59:25.067Z,76.81
2023-02-08T08:01:51.778Z,74.21
2023-02-08T08:04:20.030Z,73.95
2023-02-08T08:06:47.117Z,76.66
2023-02-08T08:09:15.548Z,76.08
2023-02-08T08:11:42.282Z,77.70
2023-02-08T08:14:10.264Z,77.39
2023-02-08T08:16:37.030Z,74.95
2023-02-08T08:19:03.740Z,76.50
2023-02-08T08:21:30.420Z,74.91
2023-02-08T08:23:57.156Z,73.42
2023-02-08T08:26:23.845Z,74.55
2023-02-08T08:28:50.600Z,74.49
2023-02-08T08:31:18.677Z,73.42
2023-02-08T08:33:45.838Z,74.34
2023-02-08T08:36:12.742Z,75.05
2023-02-08T08:38:39.528Z,75.50
2023-02-08T08:41:12.826Z,74.62
2023-02-08T08:43:39.545Z,73.86
2023-02-08T08:46:06.964Z,73.83
2023-02-08T08:48:34.513Z,74.09
2023-02-08T08:51:01.417Z,74.41
2023-02-08T08:53:28.105Z,73.25
2023-02-08T08:55:54.770Z,72.53
2023-02-08T08:58:21.464Z,71.64
2023-02-08T09:00:48.153Z,73.52
2023-02-08T09:03:14.923Z,71.12
2023-02-08T09:05:41.701Z,70.07
2023-02-08T09:08:08.428Z,70.02
2023-02-08T09:10:35.544Z,69.37
2023-02-08T09:13:02.317Z,69.94
2023-02-08T09:15:29.112Z,69.12
2023-02-08T09:17:55.826Z,69.22
2023-02-08T09:20:22.527Z,69.39
2023-02-08T09:22:49.187Z,69.14
2023-02-08T09:25:18.114Z,68.13
2023-02-08T09:27:44.794Z,65.46
2023-02-08T09:30:11.614Z,67.51
2023-02-08T09:32:40.016Z,67.13
2023-02-08T09:35:07.391Z,68.40
2023-02-08T09:37:34.140Z,67.92
2023-02-08T09:40:01.844Z,66.44
2023-02-08T09:42:44.110Z,66.46
2023-02-08T09:45:20.005Z,66.30
2023-02-08T09:47:55.433Z,64.05
2023-02-08T09:50:32.796Z,67.13
2023-02-08T09:53:04.631Z,64.99
2023-02-08T09:55:42.314Z,61.16
2023-02-08T09:58:27.701Z,64.16
2023-02-08T10:00:55.201Z,65.16
2023-02-08T10:03:30.687Z,64.35
2023-02-08T10:05:57.402Z,62.16
2023-02-08T10:08:34.530Z,60.53
2023-02-08T10:11:07.413Z,60.72
2023-02-08T10:13:43.443Z,59.11
2023-02-08T10:16:16.531Z,59.26
2023-02-08T10:18:47.277Z,58.19
2023-02-08T10:21:33.353Z,58.86
2023-02-08T10:24:06.238Z,55.93
2023-02-08T10:26:42.110Z,56.98
2023-02-08T10:29:27.448Z,57.82
2023-02-08T10:32:00.062Z,58.72
2023-02-08T10:34:39.086Z,55.30
2023-02-08T10:37:13.356Z,54.34
2023-02-08T10:39:40.260Z,57.81
2023-02-08T10:42:11.367Z,58.67
2023-02-08T10:44:51.163Z,59.67
2023-02-08T10:47:32.967Z,58.36
2023-02-08T10:50:09.511Z,57.03
2023-02-08T10:52:36.223Z,58.47
2023-02-08T10:55:03.184Z,56.37
2023-02-08T10:57:31.337Z,58.84
2023-02-08T11:00:09.783Z,58.81
2023-02-08T11:02:39.985Z,59.63
2023-02-08T11:05:08.273Z,60.45
2023-02-08T11:07:36.612Z,62.11
2023-02-08T11:10:19.102Z,59.81
2023-02-08T11:13:10.115Z,61.95
2023-02-08T11:21:42.458Z,61.69
2023-02-08T11:24:15.192Z,61.45
2023-02-08T11:39:09.913Z,62.86
2023-02-08T11:54:23.991Z,60.72
2023-02-08T11:57:12.837Z,60.57
2023-02-08T12:06:11.653Z,59.67
2023-02-08T12:08:38.397Z,57.10
2023-02-08T12:11:09.943Z,56.94
2023-02-08T12:13:55.718Z,54.03
2023-02-08T12:16:26.551Z,52.07
2023-02-08T12:19:06.562Z,50.15
2023-02-08T12:21:50.937Z,49.32
2023-02-08T12:31:18.125Z,52.29
2023-02-08T12:43:47.055Z,51.49
2023-02-08T12:46:14.280Z,52.17
2023-02-08T12:49:00.200Z,53.97
2023-02-08T12:51:26.903Z,55.36
2023-02-08T12:54:00.576Z,57.02
2023-02-08T12:56:28.370Z,56.36
2023-02-08T12:59:01.952Z,58.70
2023-02-08T13:01:36.619Z,56.64
2023-02-08T13:04:17.362Z,56.74
2023-02-08T13:06:45.550Z,53.90
2023-02-08T13:09:19.461Z,54.29
2023-02-08T13:11:49.008Z,52.14
2023-02-08T13:14:35.074Z,49.36
2023-02-08T13:17:05.705Z,50.89
2023-02-08T13:19:59.643Z,50.93
2023-02-08T13:22:27.079Z,51.12
2023-02-08T13:25:06.234Z,50.75
2023-02-08T13:27:37.737Z,51.91
2023-02-08T13:30:04.599Z,52.98
2023-02-08T13:32:31.649Z,52.14
2023-02-08T13:34:59.937Z,52.03
2023-02-08T13:37:30.253Z,52.30
2023-02-08T13:40:06.034Z,51.08
2023-02-08T13:42:40.244Z,50.88
2023-02-08T13:45:07.164Z,50.58
2023-02-08T13:47:44.088Z,51.21
2023-02-08T13:50:29.496Z,53.08
2023-02-08T13:52:56.237Z,51.84
2023-02-08T13:55:29.036Z,51.13
2023-02-08T13:57:56.724Z,51.93
2023-02-08T14:00:24.903Z,51.27
2023-02-08T14:02:58.811Z,50.21
2023-02-08T14:05:34.696Z,51.96
2023-02-08T14:08:01.890Z,50.92
2023-02-08T14:10:32.167Z,51.11
2023-02-08T14:13:04.228Z,50.78
2023-02-08T14:15:31.869Z,48.51
2023-02-08T14:17:59.936Z,47.63
2023-02-08T14:20:27.278Z,46.96
2023-02-08T14:22:56.583Z,49.40
2023-02-08T14:25:24.722Z,50.55
2023-02-08T14:27:52.915Z,49.79
2023-02-08T14:30:19.649Z,49.81
2023-02-08T14:32:50.895Z,50.40
2023-02-08T14:35:20.908Z,50.42
2023-02-08T14:37:48.818Z,51.63
2023-02-08T14:40:25.114Z,51.75
2023-02-08T14:43:10.473Z,51.49
2023-02-08T14:45:38.018Z,51.74
2023-02-08T14:48:16.890Z,54.84
2023-02-08T14:50:54.889Z,54.28
2023-02-08T14:53:24.474Z,54.69
2023-02-08T14:55:52.863Z,55.29
2023-02-08T14:58:26.071Z,55.74
2023-02-08T15:00:52.833Z,55.19
2023-02-08T15:03:19.666Z,55.47
2023-02-08T15:06:03.787Z,56.57
2023-02-08T15:08:30.547Z,55.72
2023-02-08T15:10:57.222Z,56.77
2023-02-08T15:13:26.794Z,56.10
2023-02-08T15:15:56.820Z,56.92
2023-02-08T15:18:24.380Z,56.48
2023-02-08T15:20:59.913Z,57.16
2023-02-08T15:23:26.721Z,56.33
2023-02-08T15:26:03.659Z,57.66
2023-02-08T15:28:31.296Z,57.60
2023-02-08T15:30:58.029Z,57.71
2023-02-08T15:33:25.539Z,58.22
2023-02-08T15:35:58.157Z,59.00
2023-02-08T15:38:24.852Z,58.70
2023-02-08T15:41:03.978Z,58.63
2023-02-08T15:43:30.917Z,56.86
2023-02-08T15:46:02.318Z,56.58
2023-02-08T15:48:29.059Z,56.31
2023-02-08T15:50:56.255Z,56.58
2023-02-08T15:53:23.140Z,57.33
2023-02-08T15:55:52.996Z,57.54
2023-02-08T15:58:19.629Z,57.23
2023-02-08T16:00:47.440Z,58.19
2023-02-08T16:03:20.210Z,58.20
2023-02-08T16:05:50.782Z,57.82
2023-02-08T16:08:20.240Z,57.90
2023-02-08T16:10:47.321Z,57.93
2023-02-08T16:13:17.183Z,57.96
2023-02-08T16:15:45.261Z,58.36
2023-02-08T16:18:30.653Z,57.71
2023-02-08T16:20:58.173Z,57.63
2023-02-08T16:23:29.090Z,58.37
2023-02-08T16:25:55.739Z,59.10
2023-02-08T16:28:32.276Z,59.15
2023-02-08T16:31:02.121Z,58.31
2023-02-08T16:33:29.127Z,57.66
2023-02-08T16:36:02.174Z,58.84
2023-02-08T16:38:29.718Z,57.74
2023-02-08T16:41:12.333Z,57.58
2023-02-08T16:43:43.871Z,58.54
2023-02-08T16:46:10.718Z,58.49
2023-02-08T16:48:41.016Z,58.26
2023-02-08T16:51:09.737Z,58.75
2023-02-08T16:53:42.389Z,58.93
2023-02-08T16:56:09.694Z,58.82
2023-02-08T16:58:36.365Z,58.94
2023-02-08T17:01:03.116Z,58.30
2023-02-08T17:03:30.700Z,58.81
2023-02-08T17:05:57.479Z,59.14
2023-02-08T17:08:24.155Z,59.26
2023-02-08T17:10:52.822Z,58.88
2023-02-08T17:13:21.282Z,59.93
2023-02-08T17:15:48.853Z,60.96
2023-02-08T17:18:15.705Z,59.94
2023-02-08T17:20:42.728Z,61.08
2023-02-08T17:23:09.902Z,60.30
2023-02-08T17:25:36.632Z,60.10
2023-02-08T17:28:08.068Z,61.13
2023-02-08T17:30:34.759Z,61.79
2023-02-08T17:33:01.429Z,61.75
2023-02-08T17:35:28.981Z,61.04
2023-02-08T17:37:56.124Z,62.23
2023-02-08T17:40:23.936Z,62.54
2023-02-08T17:42:52.234Z,65.95
2023-02-08T17:45:18.910Z,64.64
2023-02-08T17:47:46.042Z,63.44
2023-02-08T17:50:13.249Z,62.75
2023-02-08T17:52:40.310Z,64.62
2023-02-08T17:55:07.561Z,65.22
2023-02-08T17:57:34.839Z,64.62
2023-02-08T18:00:01.850Z,62.37
2023-02-08T18:02:28.576Z,62.37
2023-02-08T18:04:55.369Z,62.03
2023-02-08T18:07:22.049Z,64.35
2023-02-08T18:09:48.731Z,65.49
2023-02-08T18:12:15.830Z,65.75
2023-02-08T18:14:42.478Z,65.78
2023-02-08T18:17:09.212Z,67.02
2023-02-08T18:19:35.886Z,67.32
2023-02-08T18:22:03.951Z,67.25
2023-02-08T18:24:31.257Z,67.28
2023-02-08T18:26:59.801Z,67.65
2023-02-08T18:29:26.750Z,69.87
2023-02-08T18:31:53.619Z,69.65
2023-02-08T18:34:20.513Z,65.95
2023-02-08T18:36:47.691Z,66.91
2023-02-08T18:39:14.661Z,68.19
2023-02-08T18:41:43.226Z,67.01
2023-02-08T18:44:09.901Z,67.07
2023-02-08T18:46:36.567Z,66.50
2023-02-08T18:49:03.317Z,66.20
2023-02-08T18:51:30.001Z,66.47
2023-02-08T18:53:56.672Z,70.22
2023-02-08T18:56:25.282Z,69.46
2023-02-08T18:58:52.954Z,69.38
2023-02-08T19:01:21.101Z,67.37
2023-02-08T19:03:48.020Z,68.02
2023-02-08T19:06:25.171Z,70.11
2023-02-08T19:08:52.863Z,67.64
2023-02-08T19:11:23.543Z,68.97
2023-02-08T19:13:50.451Z,69.14
2023-02-08T19:16:17.629Z,67.92
2023-02-08T19:18:44.901Z,67.34
2023-02-08T19:21:12.692Z,67.50
2023-02-08T19:23:39.369Z,68.55
2023-02-08T19:26:07.010Z,67.04
2023-02-08T19:28:34.080Z,65.80
2023-02-08T19:31:10.010Z,65.89
2023-02-08T19:33:37.223Z,66.87
2023-02-08T19:36:11.094Z,67.87
2023-02-08T19:38:37.968Z,68.34
2023-02-08T19:41:05.147Z,67.60
2023-02-08T19:43:32.286Z,68.43
2023-02-08T19:45:59.610Z,70.40
2023-02-08T19:48:26.609Z,70.66
2023-02-08T19:50:59.623Z,70.51
2023-02-08T19:53:27.036Z,70.18
2023-02-08T19:56:00.354Z,69.88
2023-02-08T19:58:27.047Z,69.26
2023-02-08T20:00:54.077Z,68.60
2023-02-08T20:03:22.285Z,69.52
2023-02-08T20:05:49.347Z,69.78
2023-02-08T20:08:16.069Z,69.54
2023-02-08T20:10:44.519Z,68.59
2023-02-08T20:13:11.683Z,68.27
2023-02-08T20:15:38.788Z,69.45
2023-02-08T20:18:05.809Z,69.34
2023-02-08T20:20:32.533Z,69.17
2023-02-08T20:23:00.410Z,69.23
2023-02-08T20:25:27.080Z,69.12
2023-02-08T20:27:54.509Z,69.51
2023-02-08T20:30:21.369Z,69.94
2023-02-08T20:32:48.204Z,70.97
2023-02-08T20:35:15.179Z,72.13
2023-02-08T20:37:42.010Z,74.55
2023-02-08T20:40:09.410Z,74.88
2023-02-08T20:42:36.159Z,72.55
2023-02-08T20:45:02.856Z,71.77
2023-02-08T20:47:31.831Z,75.47
2023-02-08T20:50:01.216Z,76.84
2023-02-08T20:52:29.691Z,77.98
2023-02-08T20:54:56.388Z,77.24
2023-02-08T20:57:23.086Z,75.03
2023-02-08T20:59:50.288Z,73.51
2023-02-08T21:02:21.140Z,73.20
2023-02-08T21:04:48.108Z,72.75
2023-02-08T21:07:15.334Z,71.27
2023-02-08T21:09:42.144Z,71.91
2023-02-08T21:12:08.857Z,70.83
2023-02-08T21:14:35.494Z,71.01
2023-02-08T21:17:02.324Z,70.18
2023-02-08T21:19:29.954Z,72.57
2023-02-08T21:21:57.860Z,75.18
2023-02-08T21:24:24.936Z,72.21
2023-02-08T21:26:52.296Z,71.41
2023-02-08T21:29:18.992Z,70.80
2023-02-08T21:31:45.808Z,71.14
2023-02-08T21:34:13.578Z,71.04
2023-02-08T21:36:40.291Z,73.63
2023-02-08T21:39:07.122Z,75.53
2023-02-08T21:41:33.968Z,80.56
2023-02-08T21:44:02.426Z,78.96
2023-02-08T21:46:29.184Z,76.40
2023-02-08T21:49:15.150Z,72.31
2023-02-08T21:52:00.803Z,70.82
2023-02-08T21:54:43.034Z,72.63
2023-02-08T21:57:14.503Z,70.73
2023-02-08T21:59:41.221Z,69.99
2023-02-08T22:02:09.019Z,70.44
2023-02-08T22:04:35.938Z,70.28
2023-02-08T22:07:04.732Z,70.25
2023-02-08T22:09:31.497Z,70.64
2023-02-08T22:11:58.982Z,71.87
2023-02-08T22:14:25.881Z,72.61
2023-02-08T22:16:52.537Z,73.43
2023-02-08T22:19:19.269Z,74.37
2023-02-08T22:21:45.966Z,74.50
2023-02-08T22:24:12.708Z,74.77
2023-02-08T22:26:39.418Z,74.77
2023-02-08T22:29:06.077Z,72.57
2023-02-08T22:31:32.956Z,73.41
2023-02-08T22:33:59.972Z,72.30
2023-02-08T22:36:26.684Z,72.21
2023-02-08T22:38:53.360Z,71.28
2023-02-08T22:41:20.071Z,70.56
2023-02-08T22:43:46.856Z,71.55
2023-02-08T22:46:13.580Z,71.26
2023-02-08T22:48:40.558Z,71.66
2023-02-08T22:51:08.424Z,71.66
2023-02-08T22:53:35.164Z,72.89
2023-02-08T22:56:01.856Z,72.27
2023-02-08T22:58:28.608Z,73.27
2023-02-08T23:00:55.310Z,71.63
2023-02-08T23:03:22.121Z,72.81
2023-02-08T23:05:49.386Z,74.07
2023-02-08T23:08:16.655Z,75.36
2023-02-08T23:10:43.676Z,73.77
2023-02-08T23:13:10.576Z,73.40
2023-02-08T23:15:38.157Z,74.39
2023-02-08T23:18:05.260Z,73.59
2023-02-08T23:20:32.243Z,72.80
2023-02-08T23:22:58.974Z,73.12
2023-02-08T23:25:25.636Z,73.11
2023-02-08T23:27:52.389Z,74.74
2023-02-08T23:30:19.099Z,74.79
2023-02-08T23:32:45.746Z,72.05
2023-02-08T23:35:12.428Z,72.78
2023-02-08T23:37:39.276Z,72.85
2023-02-08T23:40:06.187Z,70.83
2023-02-08T23:42:33.024Z,71.12
2023-02-08T23:45:00.029Z,71.45
2023-02-08T23:47:27.584Z,70.41
2023-02-08T23:49:54.261Z,72.43
2023-02-08T23:52:20.922Z,70.81
2023-02-08T23:54:47.649Z,72.71
2023-02-08T23:57:14.389Z,73.53
2023-02-08T23:59:41.261Z,72.72
